sensor_id;sensor_type;location;lat;lon;timestamp;P1;durP1;ratioP1;P2;durP2;ratioP2
50547;SDS011;38013;48.810;8.818;2023-05-17T00:02:01;11.15;;;3.70;;
50547;SDS011;38013;48.810;8.818;2023-05-17T00:04:28;7.05;;;2.38;;
50547;SDS011;38013;48.810;8.818;2023-05-17T00:06:55;5.40;;;1.45;;
50547;SDS011;38013;48.810;8.818;2023-05-17T00:09:22;2.97;;;1.13;;
50547;SDS011;38013;48.810;8.818;2023-05-17T00:11:49;4.68;;;1.23;;
50547;SDS011;38013;48.810;8.818;2023-05-17T00:14:16;4.50;;;0.93;;
50547;SDS011;38013;48.810;8.818;2023-05-17T00:16:43;5.28;;;1.27;;
50547;SDS011;38013;48.810;8.818;2023-05-17T00:19:10;3.55;;;1.02;;
50547;SDS011;38013;48.810;8.818;2023-05-17T00:21:37;4.70;;;1.35;;
50547;SDS011;38013;48.810;8.818;2023-05-17T00:24:04;7.75;;;1.40;;
50547;SDS011;38013;48.810;8.818;2023-05-17T00:26:31;5.93;;;1.20;;
50547;SDS011;38013;48.810;8.818;2023-05-17T00:28:59;3.72;;;1.13;;
50547;SDS011;38013;48.810;8.818;2023-05-17T00:31:26;3.15;;;1.10;;
50547;SDS011;38013;48.810;8.818;2023-05-17T00:33:53;2.63;;;0.98;;
50547;SDS011;38013;48.810;8.818;2023-05-17T00:36:20;4.10;;;1.00;;
50547;SDS011;38013;48.810;8.818;2023-05-17T00:38:47;4.68;;;1.20;;
50547;SDS011;38013;48.810;8.818;2023-05-17T00:41:14;4.95;;;1.17;;
50547;SDS011;38013;48.810;8.818;2023-05-17T00:43:40;6.38;;;1.17;;
50547;SDS011;38013;48.810;8.818;2023-05-17T00:46:08;2.88;;;0.90;;
50547;SDS011;38013;48.810;8.818;2023-05-17T00:48:35;3.20;;;1.10;;
50547;SDS011;38013;48.810;8.818;2023-05-17T00:51:02;5.53;;;1.02;;
50547;SDS011;38013;48.810;8.818;2023-05-17T00:53:29;4.88;;;1.08;;
50547;SDS011;38013;48.810;8.818;2023-05-17T00:55:56;4.25;;;0.95;;
50547;SDS011;38013;48.810;8.818;2023-05-17T00:58:23;3.20;;;0.90;;
50547;SDS011;38013;48.810;8.818;2023-05-17T01:00:50;3.92;;;0.90;;
50547;SDS011;38013;48.810;8.818;2023-05-17T01:03:18;2.78;;;0.85;;
50547;SDS011;38013;48.810;8.818;2023-05-17T01:05:57;5.28;;;0.90;;
50547;SDS011;38013;48.810;8.818;2023-05-17T01:08:23;1.98;;;0.90;;
50547;SDS011;38013;48.810;8.818;2023-05-17T01:16:00;10.32;;;1.00;;
50547;SDS011;38013;48.810;8.818;2023-05-17T01:24:41;6.80;;;0.90;;
50547;SDS011;38013;48.810;8.818;2023-05-17T01:27:25;5.32;;;1.30;;
50547;SDS011;38013;48.810;8.818;2023-05-17T01:29:55;6.32;;;1.77;;
50547;SDS011;38013;48.810;8.818;2023-05-17T01:32:23;6.45;;;1.55;;
50547;SDS011;38013;48.810;8.818;2023-05-17T01:34:51;3.83;;;1.27;;
50547;SDS011;38013;48.810;8.818;2023-05-17T01:37:18;2.53;;;1.10;;
50547;SDS011;38013;48.810;8.818;2023-05-17T01:39:45;5.75;;;1.15;;
50547;SDS011;38013;48.810;8.818;2023-05-17T01:42:13;3.50;;;1.02;;
50547;SDS011;38013;48.810;8.818;2023-05-17T01:47:59;3.83;;;1.00;;
50547;SDS011;38013;48.810;8.818;2023-05-17T01:50:41;4.68;;;1.10;;
50547;SDS011;38013;48.810;8.818;2023-05-17T01:53:16;3.13;;;0.90;;
50547;SDS011;38013;48.810;8.818;2023-05-17T01:55:49;4.43;;;1.27;;
50547;SDS011;38013;48.810;8.818;2023-05-17T01:58:24;4.13;;;1.10;;
50547;SDS011;38013;48.810;8.818;2023-05-17T02:00:54;2.50;;;0.90;;
50547;SDS011;38013;48.810;8.818;2023-05-17T02:03:23;3.30;;;1.17;;
50547;SDS011;38013;48.810;8.818;2023-05-17T02:05:57;3.20;;;1.20;;
50547;SDS011;38013;48.810;8.818;2023-05-17T02:08:24;5.05;;;0.95;;
50547;SDS011;38013;48.810;8.818;2023-05-17T02:10:51;4.95;;;1.10;;
50547;SDS011;38013;48.810;8.818;2023-05-17T02:13:18;5.78;;;0.95;;
50547;SDS011;38013;48.810;8.818;2023-05-17T02:15:45;4.35;;;1.60;;
50547;SDS011;38013;48.810;8.818;2023-05-17T02:18:12;4.03;;;0.70;;
50547;SDS011;38013;48.810;8.818;2023-05-17T02:20:39;5.85;;;1.00;;
50547;SDS011;38013;48.810;8.818;2023-05-17T02:23:06;4.47;;;0.93;;
50547;SDS011;38013;48.810;8.818;2023-05-17T02:25:33;3.70;;;0.70;;
50547;SDS011;38013;48.810;8.818;2023-05-17T02:28:00;3.63;;;1.05;;
50547;SDS011;38013;48.810;8.818;2023-05-17T02:30:27;2.97;;;0.90;;
50547;SDS011;38013;48.810;8.818;2023-05-17T02:32:55;5.25;;;1.20;;
50547;SDS011;38013;48.810;8.818;2023-05-17T02:35:22;3.83;;;1.08;;
50547;SDS011;38013;48.810;8.818;2023-05-17T02:37:49;3.20;;;0.95;;
50547;SDS011;38013;48.810;8.818;2023-05-17T02:40:16;3.22;;;0.98;;
50547;SDS011;38013;48.810;8.818;2023-05-17T02:42:43;4.05;;;0.85;;
50547;SDS011;38013;48.810;8.818;2023-05-17T02:45:10;2.88;;;0.77;;
50547;SDS011;38013;48.810;8.818;2023-05-17T02:47:37;4.22;;;1.00;;
50547;SDS011;38013;48.810;8.818;2023-05-17T02:50:04;3.70;;;1.23;;
50547;SDS011;38013;48.810;8.818;2023-05-17T02:52:32;2.72;;;0.90;;
50547;SDS011;38013;48.810;8.818;2023-05-17T02:55:00;4.13;;;1.00;;
50547;SDS011;38013;48.810;8.818;2023-05-17T02:57:27;1.63;;;0.80;;
50547;SDS011;38013;48.810;8.818;2023-05-17T02:59:54;2.55;;;0.90;;
50547;SDS011;38013;48.810;8.818;2023-05-17T03:02:21;6.05;;;1.10;;
50547;SDS011;38013;48.810;8.818;2023-05-17T03:04:48;5.32;;;0.95;;
50547;SDS011;38013;48.810;8.818;2023-05-17T03:07:15;4.32;;;1.00;;
50547;SDS011;38013;48.810;8.818;2023-05-17T03:09:42;2.28;;;0.90;;
50547;SDS011;38013;48.810;8.818;2023-05-17T03:12:10;4.13;;;0.98;;
50547;SDS011;38013;48.810;8.818;2023-05-17T03:14:37;3.33;;;1.00;;
50547;SDS011;38013;48.810;8.818;2023-05-17T03:17:04;2.97;;;0.95;;
50547;SDS011;38013;48.810;8.818;2023-05-17T03:19:33;2.33;;;1.00;;
50547;SDS011;38013;48.810;8.818;2023-05-17T03:22:02;3.72;;;0.82;;
50547;SDS011;38013;48.810;8.818;2023-05-17T03:24:31;3.42;;;0.88;;
50547;SDS011;38013;48.810;8.818;2023-05-17T03:26:59;3.10;;;0.80;;
50547;SDS011;38013;48.810;8.818;2023-05-17T03:29:26;2.67;;;0.98;;
50547;SDS011;38013;48.810;8.818;2023-05-17T03:31:53;3.25;;;0.90;;
50547;SDS011;38013;48.810;8.818;2023-05-17T03:34:20;4.13;;;0.93;;
50547;SDS011;38013;48.810;8.818;2023-05-17T03:36:47;3.95;;;1.13;;
50547;SDS011;38013;48.810;8.818;2023-05-17T03:39:14;3.55;;;1.05;;
50547;SDS011;38013;48.810;8.818;2023-05-17T03:41:41;5.13;;;1.30;;
50547;SDS011;38013;48.810;8.818;2023-05-17T03:44:09;4.03;;;1.17;;
50547;SDS011;38013;48.810;8.818;2023-05-17T03:46:37;5.45;;;0.90;;
50547;SDS011;38013;48.810;8.818;2023-05-17T03:49:05;7.82;;;1.30;;
50547;SDS011;38013;48.810;8.818;2023-05-17T03:51:33;3.08;;;0.70;;
50547;SDS011;38013;48.810;8.818;2023-05-17T03:54:00;3.47;;;1.00;;
50547;SDS011;38013;48.810;8.818;2023-05-17T03:56:29;5.50;;;1.02;;
50547;SDS011;38013;48.810;8.818;2023-05-17T03:58:56;4.78;;;1.10;;
50547;SDS011;38013;48.810;8.818;2023-05-17T04:01:24;4.15;;;1.05;;
50547;SDS011;38013;48.810;8.818;2023-05-17T04:03:51;2.60;;;0.98;;
50547;SDS011;38013;48.810;8.818;2023-05-17T04:06:20;3.85;;;1.30;;
50547;SDS011;38013;48.810;8.818;2023-05-17T04:08:47;3.58;;;1.02;;
50547;SDS011;38013;48.810;8.818;2023-05-17T04:11:14;6.78;;;0.90;;
50547;SDS011;38013;48.810;8.818;2023-05-17T04:13:42;3.80;;;0.90;;
50547;SDS011;38013;48.810;8.818;2023-05-17T04:16:09;3.22;;;1.20;;
50547;SDS011;38013;48.810;8.818;2023-05-17T04:18:39;4.22;;;1.00;;
50547;SDS011;38013;48.810;8.818;2023-05-17T04:21:07;4.97;;;1.15;;
50547;SDS011;38013;48.810;8.818;2023-05-17T04:23:35;3.38;;;1.00;;
50547;SDS011;38013;48.810;8.818;2023-05-17T04:26:03;1.85;;;0.80;;
50547;SDS011;38013;48.810;8.818;2023-05-17T04:28:35;2.20;;;1.08;;
50547;SDS011;38013;48.810;8.818;2023-05-17T04:31:05;3.13;;;1.10;;
50547;SDS011;38013;48.810;8.818;2023-05-17T04:33:36;4.90;;;1.33;;
50547;SDS011;38013;48.810;8.818;2023-05-17T04:36:05;7.10;;;2.15;;
50547;SDS011;38013;48.810;8.818;2023-05-17T04:38:33;3.05;;;1.10;;
50547;SDS011;38013;48.810;8.818;2023-05-17T04:41:03;4.70;;;1.70;;
50547;SDS011;38013;48.810;8.818;2023-05-17T04:43:33;8.82;;;2.65;;
50547;SDS011;38013;48.810;8.818;2023-05-17T04:46:03;7.03;;;2.80;;
50547;SDS011;38013;48.810;8.818;2023-05-17T04:48:31;7.15;;;1.90;;
50547;SDS011;38013;48.810;8.818;2023-05-17T04:50:59;5.15;;;1.60;;
50547;SDS011;38013;48.810;8.818;2023-05-17T04:53:30;3.80;;;1.35;;
50547;SDS011;38013;48.810;8.818;2023-05-17T04:56:00;4.18;;;1.50;;
50547;SDS011;38013;48.810;8.818;2023-05-17T04:58:29;5.03;;;1.48;;
50547;SDS011;38013;48.810;8.818;2023-05-17T05:00:59;6.18;;;1.10;;
50547;SDS011;38013;48.810;8.818;2023-05-17T05:03:26;3.90;;;0.98;;
50547;SDS011;38013;48.810;8.818;2023-05-17T05:05:53;3.75;;;1.00;;
50547;SDS011;38013;48.810;8.818;2023-05-17T05:08:21;5.13;;;1.13;;
50547;SDS011;38013;48.810;8.818;2023-05-17T05:10:50;6.78;;;1.30;;
50547;SDS011;38013;48.810;8.818;2023-05-17T05:13:20;2.53;;;1.07;;
50547;SDS011;38013;48.810;8.818;2023-05-17T05:15:49;5.30;;;1.20;;
50547;SDS011;38013;48.810;8.818;2023-05-17T05:18:16;3.45;;;1.10;;
50547;SDS011;38013;48.810;8.818;2023-05-17T05:20:44;4.72;;;1.30;;
50547;SDS011;38013;48.810;8.818;2023-05-17T05:23:14;5.07;;;1.20;;
50547;SDS011;38013;48.810;8.818;2023-05-17T05:25:45;5.50;;;1.40;;
50547;SDS011;38013;48.810;8.818;2023-05-17T05:28:12;2.85;;;1.40;;
50547;SDS011;38013;48.810;8.818;2023-05-17T05:30:40;2.33;;;0.98;;
50547;SDS011;38013;48.810;8.818;2023-05-17T05:33:07;4.03;;;1.48;;
50547;SDS011;38013;48.810;8.818;2023-05-17T05:35:35;4.35;;;1.50;;
50547;SDS011;38013;48.810;8.818;2023-05-17T05:38:02;4.15;;;1.27;;
50547;SDS011;38013;48.810;8.818;2023-05-17T05:40:29;4.82;;;1.60;;
50547;SDS011;38013;48.810;8.818;2023-05-17T05:42:57;3.45;;;1.30;;
50547;SDS011;38013;48.810;8.818;2023-05-17T05:45:24;3.00;;;0.98;;
50547;SDS011;38013;48.810;8.818;2023-05-17T05:47:54;2.85;;;1.10;;
50547;SDS011;38013;48.810;8.818;2023-05-17T05:50:22;5.45;;;2.00;;
50547;SDS011;38013;48.810;8.818;2023-05-17T05:52:52;7.35;;;1.77;;
50547;SDS011;38013;48.810;8.818;2023-05-17T05:55:32;5.25;;;1.55;;
50547;SDS011;38013;48.810;8.818;2023-05-17T05:57:59;5.70;;;1.65;;
50547;SDS011;38013;48.810;8.818;2023-05-17T06:00:26;6.22;;;1.77;;
50547;SDS011;38013;48.810;8.818;2023-05-17T06:02:54;6.25;;;1.73;;
50547;SDS011;38013;48.810;8.818;2023-05-17T06:05:22;8.45;;;2.13;;
50547;SDS011;38013;48.810;8.818;2023-05-17T06:07:49;5.38;;;1.85;;
50547;SDS011;38013;48.810;8.818;2023-05-17T06:10:16;4.18;;;1.70;;
50547;SDS011;38013;48.810;8.818;2023-05-17T06:12:44;6.03;;;1.90;;
50547;SDS011;38013;48.810;8.818;2023-05-17T06:15:11;5.18;;;1.90;;
50547;SDS011;38013;48.810;8.818;2023-05-17T06:17:38;5.97;;;2.00;;
50547;SDS011;38013;48.810;8.818;2023-05-17T06:20:05;6.70;;;1.90;;
50547;SDS011;38013;48.810;8.818;2023-05-17T06:22:34;5.00;;;2.10;;
50547;SDS011;38013;48.810;8.818;2023-05-17T06:25:01;6.13;;;2.13;;
50547;SDS011;38013;48.810;8.818;2023-05-17T06:27:30;6.80;;;1.70;;
50547;SDS011;38013;48.810;8.818;2023-05-17T06:29:59;7.18;;;1.88;;
50547;SDS011;38013;48.810;8.818;2023-05-17T06:32:26;4.30;;;1.83;;
50547;SDS011;38013;48.810;8.818;2023-05-17T06:34:54;6.40;;;1.90;;
50547;SDS011;38013;48.810;8.818;2023-05-17T06:37:22;6.07;;;1.80;;
50547;SDS011;38013;48.810;8.818;2023-05-17T06:39:50;8.38;;;2.15;;
50547;SDS011;38013;48.810;8.818;2023-05-17T06:42:34;8.57;;;1.88;;
50547;SDS011;38013;48.810;8.818;2023-05-17T06:45:01;7.03;;;1.90;;
50547;SDS011;38013;48.810;8.818;2023-05-17T06:47:31;4.90;;;1.90;;
50547;SDS011;38013;48.810;8.818;2023-05-17T06:49:58;5.53;;;2.28;;
50547;SDS011;38013;48.810;8.818;2023-05-17T06:52:25;10.45;;;2.08;;
50547;SDS011;38013;48.810;8.818;2023-05-17T06:54:52;7.95;;;2.20;;
50547;SDS011;38013;48.810;8.818;2023-05-17T06:57:20;8.75;;;1.83;;
50547;SDS011;38013;48.810;8.818;2023-05-17T06:59:47;10.20;;;2.30;;
50547;SDS011;38013;48.810;8.818;2023-05-17T07:02:14;6.18;;;1.90;;
50547;SDS011;38013;48.810;8.818;2023-05-17T07:04:41;6.53;;;2.55;;
50547;SDS011;38013;48.810;8.818;2023-05-17T07:07:08;7.78;;;2.08;;
50547;SDS011;38013;48.810;8.818;2023-05-17T07:09:36;8.60;;;2.05;;
50547;SDS011;38013;48.810;8.818;2023-05-17T07:12:04;6.88;;;2.10;;
50547;SDS011;38013;48.810;8.818;2023-05-17T07:14:32;7.32;;;2.15;;
50547;SDS011;38013;48.810;8.818;2023-05-17T07:16:59;6.40;;;2.38;;
50547;SDS011;38013;48.810;8.818;2023-05-17T07:19:25;7.32;;;2.42;;
50547;SDS011;38013;48.810;8.818;2023-05-17T07:21:53;5.88;;;2.20;;
50547;SDS011;38013;48.810;8.818;2023-05-17T07:24:19;4.50;;;2.00;;
50547;SDS011;38013;48.810;8.818;2023-05-17T07:26:46;6.93;;;2.50;;
50547;SDS011;38013;48.810;8.818;2023-05-17T07:29:17;7.70;;;2.42;;
50547;SDS011;38013;48.810;8.818;2023-05-17T07:34:14;8.15;;;2.17;;
50547;SDS011;38013;48.810;8.818;2023-05-17T07:36:41;6.72;;;2.25;;
50547;SDS011;38013;48.810;8.818;2023-05-17T07:39:08;9.75;;;2.70;;
50547;SDS011;38013;48.810;8.818;2023-05-17T07:41:35;10.68;;;2.95;;
50547;SDS011;38013;48.810;8.818;2023-05-17T07:44:03;8.32;;;2.50;;
50547;SDS011;38013;48.810;8.818;2023-05-17T07:46:31;8.05;;;3.05;;
50547;SDS011;38013;48.810;8.818;2023-05-17T07:49:00;8.52;;;2.30;;
50547;SDS011;38013;48.810;8.818;2023-05-17T07:51:27;6.82;;;2.38;;
50547;SDS011;38013;48.810;8.818;2023-05-17T07:53:54;10.98;;;2.78;;
50547;SDS011;38013;48.810;8.818;2023-05-17T07:56:21;22.33;;;12.80;;
50547;SDS011;38013;48.810;8.818;2023-05-17T07:58:48;18.25;;;8.85;;
50547;SDS011;38013;48.810;8.818;2023-05-17T08:01:16;11.18;;;4.45;;
50547;SDS011;38013;48.810;8.818;2023-05-17T08:03:43;7.97;;;2.95;;
50547;SDS011;38013;48.810;8.818;2023-05-17T08:06:14;7.35;;;2.50;;
50547;SDS011;38013;48.810;8.818;2023-05-17T08:08:42;12.10;;;4.60;;
50547;SDS011;38013;48.810;8.818;2023-05-17T08:11:10;7.50;;;2.65;;
50547;SDS011;38013;48.810;8.818;2023-05-17T08:13:37;10.70;;;4.65;;
50547;SDS011;38013;48.810;8.818;2023-05-17T08:16:05;16.90;;;4.53;;
50547;SDS011;38013;48.810;8.818;2023-05-17T08:18:40;4.93;;;2.08;;
50547;SDS011;38013;48.810;8.818;2023-05-17T08:21:10;8.93;;;2.47;;
50547;SDS011;38013;48.810;8.818;2023-05-17T08:23:37;7.13;;;2.40;;
50547;SDS011;38013;48.810;8.818;2023-05-17T08:26:07;5.88;;;2.30;;
50547;SDS011;38013;48.810;8.818;2023-05-17T08:28:34;7.70;;;2.22;;
50547;SDS011;38013;48.810;8.818;2023-05-17T08:31:01;9.35;;;2.45;;
50547;SDS011;38013;48.810;8.818;2023-05-17T08:33:29;7.75;;;2.17;;
50547;SDS011;38013;48.810;8.818;2023-05-17T08:35:56;7.07;;;2.00;;
50547;SDS011;38013;48.810;8.818;2023-05-17T08:38:28;6.32;;;2.25;;
50547;SDS011;38013;48.810;8.818;2023-05-17T08:40:56;7.35;;;2.33;;
50547;SDS011;38013;48.810;8.818;2023-05-17T08:43:28;5.80;;;1.80;;
50547;SDS011;38013;48.810;8.818;2023-05-17T08:45:58;6.00;;;2.85;;
50547;SDS011;38013;48.810;8.818;2023-05-17T08:48:26;12.27;;;5.47;;
50547;SDS011;38013;48.810;8.818;2023-05-17T08:50:56;12.23;;;5.00;;
50547;SDS011;38013;48.810;8.818;2023-05-17T08:53:25;6.00;;;2.35;;
50547;SDS011;38013;48.810;8.818;2023-05-17T08:55:56;4.05;;;1.75;;
50547;SDS011;38013;48.810;8.818;2023-05-17T08:58:26;4.75;;;2.15;;
50547;SDS011;38013;48.810;8.818;2023-05-17T09:01:05;4.38;;;2.40;;
50547;SDS011;38013;48.810;8.818;2023-05-17T09:03:33;6.65;;;3.03;;
50547;SDS011;38013;48.810;8.818;2023-05-17T09:06:01;6.90;;;2.40;;
50547;SDS011;38013;48.810;8.818;2023-05-17T09:08:29;7.18;;;3.28;;
50547;SDS011;38013;48.810;8.818;2023-05-17T09:10:57;9.88;;;2.28;;
50547;SDS011;38013;48.810;8.818;2023-05-17T09:13:24;6.90;;;2.65;;
50547;SDS011;38013;48.810;8.818;2023-05-17T09:15:51;7.30;;;2.17;;
50547;SDS011;38013;48.810;8.818;2023-05-17T09:18:27;7.90;;;2.55;;
50547;SDS011;38013;48.810;8.818;2023-05-17T09:21:01;7.43;;;3.85;;
50547;SDS011;38013;48.810;8.818;2023-05-17T09:23:30;5.68;;;2.05;;
50547;SDS011;38013;48.810;8.818;2023-05-17T09:26:04;6.80;;;2.47;;
50547;SDS011;38013;48.810;8.818;2023-05-17T09:28:37;6.47;;;2.05;;
50547;SDS011;38013;48.810;8.818;2023-05-17T09:31:07;4.10;;;2.15;;
50547;SDS011;38013;48.810;8.818;2023-05-17T09:33:45;8.05;;;2.13;;
50547;SDS011;38013;48.810;8.818;2023-05-17T09:36:16;7.32;;;2.50;;
50547;SDS011;38013;48.810;8.818;2023-05-17T09:39:06;7.00;;;2.17;;
50547;SDS011;38013;48.810;8.818;2023-05-17T09:41:45;7.88;;;1.95;;
50547;SDS011;38013;48.810;8.818;2023-05-17T09:44:14;4.93;;;2.28;;
50547;SDS011;38013;48.810;8.818;2023-05-17T09:46:45;6.28;;;2.20;;
50547;SDS011;38013;48.810;8.818;2023-05-17T09:49:15;5.55;;;2.13;;
50547;SDS011;38013;48.810;8.818;2023-05-17T09:51:44;8.48;;;2.75;;
50547;SDS011;38013;48.810;8.818;2023-05-17T09:54:13;8.18;;;2.10;;
50547;SDS011;38013;48.810;8.818;2023-05-17T09:56:40;8.63;;;2.25;;
50547;SDS011;38013;48.810;8.818;2023-05-17T09:59:14;9.50;;;2.83;;
50547;SDS011;38013;48.810;8.818;2023-05-17T10:01:42;7.30;;;2.53;;
50547;SDS011;38013;48.810;8.818;2023-05-17T10:04:11;6.03;;;2.58;;
50547;SDS011;38013;48.810;8.818;2023-05-17T10:06:40;7.07;;;2.45;;
50547;SDS011;38013;48.810;8.818;2023-05-17T10:09:16;9.93;;;3.00;;
50547;SDS011;38013;48.810;8.818;2023-05-17T10:11:48;11.30;;;3.28;;
50547;SDS011;38013;48.810;8.818;2023-05-17T10:16:57;7.63;;;2.53;;
50547;SDS011;38013;48.810;8.818;2023-05-17T10:19:26;8.75;;;2.97;;
50547;SDS011;38013;48.810;8.818;2023-05-17T10:21:54;8.98;;;2.97;;
50547;SDS011;38013;48.810;8.818;2023-05-17T10:24:38;8.05;;;2.60;;
50547;SDS011;38013;48.810;8.818;2023-05-17T10:27:12;6.95;;;2.55;;
50547;SDS011;38013;48.810;8.818;2023-05-17T10:29:40;9.00;;;2.92;;
50547;SDS011;38013;48.810;8.818;2023-05-17T10:32:13;7.60;;;3.08;;
50547;SDS011;38013;48.810;8.818;2023-05-17T10:34:42;10.75;;;3.05;;
50547;SDS011;38013;48.810;8.818;2023-05-17T10:37:12;9.43;;;3.10;;
50547;SDS011;38013;48.810;8.818;2023-05-17T10:39:40;7.95;;;2.80;;
50547;SDS011;38013;48.810;8.818;2023-05-17T10:42:12;7.25;;;2.63;;
50547;SDS011;38013;48.810;8.818;2023-05-17T10:44:41;8.45;;;2.63;;
50547;SDS011;38013;48.810;8.818;2023-05-17T10:47:08;7.15;;;2.85;;
50547;SDS011;38013;48.810;8.818;2023-05-17T10:49:37;10.35;;;3.00;;
50547;SDS011;38013;48.810;8.818;2023-05-17T10:52:12;6.50;;;2.60;;
50547;SDS011;38013;48.810;8.818;2023-05-17T10:54:43;7.40;;;2.95;;
50547;SDS011;38013;48.810;8.818;2023-05-17T10:57:18;7.63;;;3.00;;
50547;SDS011;38013;48.810;8.818;2023-05-17T10:59:55;8.20;;;2.90;;
50547;SDS011;38013;48.810;8.818;2023-05-17T11:02:25;7.75;;;3.42;;
50547;SDS011;38013;48.810;8.818;2023-05-17T11:04:54;7.15;;;2.97;;
50547;SDS011;38013;48.810;8.818;2023-05-17T11:12:34;9.60;;;2.75;;
50547;SDS011;38013;48.810;8.818;2023-05-17T11:15:11;9.45;;;2.63;;
50547;SDS011;38013;48.810;8.818;2023-05-17T11:22:48;8.85;;;2.83;;
50547;SDS011;38013;48.810;8.818;2023-05-17T11:25:21;7.00;;;2.67;;
50547;SDS011;38013;48.810;8.818;2023-05-17T11:27:49;9.25;;;2.90;;
50547;SDS011;38013;48.810;8.818;2023-05-17T11:30:22;7.05;;;2.80;;
50547;SDS011;38013;48.810;8.818;2023-05-17T11:32:53;9.10;;;3.15;;
50547;SDS011;38013;48.810;8.818;2023-05-17T11:35:36;8.07;;;2.72;;
50547;SDS011;38013;48.810;8.818;2023-05-17T11:38:11;6.80;;;2.38;;
50547;SDS011;38013;48.810;8.818;2023-05-17T11:40:48;6.95;;;2.80;;
50547;SDS011;38013;48.810;8.818;2023-05-17T11:43:20;7.20;;;2.63;;
50547;SDS011;38013;48.810;8.818;2023-05-17T11:45:55;9.48;;;2.90;;
50547;SDS011;38013;48.810;8.818;2023-05-17T11:48:28;5.85;;;2.90;;
50547;SDS011;38013;48.810;8.818;2023-05-17T11:50:56;5.82;;;2.17;;
50547;SDS011;38013;48.810;8.818;2023-05-17T11:53:26;8.48;;;2.60;;
50547;SDS011;38013;48.810;8.818;2023-05-17T11:55:53;8.30;;;2.92;;
50547;SDS011;38013;48.810;8.818;2023-05-17T11:58:25;8.05;;;2.80;;
50547;SDS011;38013;48.810;8.818;2023-05-17T12:00:53;5.45;;;2.40;;
50547;SDS011;38013;48.810;8.818;2023-05-17T12:03:24;7.60;;;2.60;;
50547;SDS011;38013;48.810;8.818;2023-05-17T12:06:02;4.50;;;2.20;;
50547;SDS011;38013;48.810;8.818;2023-05-17T12:08:36;6.10;;;2.30;;
50547;SDS011;38013;48.810;8.818;2023-05-17T12:11:12;6.00;;;2.30;;
50547;SDS011;38013;48.810;8.818;2023-05-17T12:13:41;7.53;;;2.70;;
50547;SDS011;38013;48.810;8.818;2023-05-17T12:16:15;7.43;;;2.63;;
50547;SDS011;38013;48.810;8.818;2023-05-17T12:18:48;5.45;;;2.05;;
50547;SDS011;38013;48.810;8.818;2023-05-17T12:21:17;4.72;;;2.00;;
50547;SDS011;38013;48.810;8.818;2023-05-17T12:23:49;6.05;;;2.42;;
50547;SDS011;38013;48.810;8.818;2023-05-17T12:26:18;7.35;;;2.00;;
50547;SDS011;38013;48.810;8.818;2023-05-17T12:28:57;6.90;;;2.10;;
50547;SDS011;38013;48.810;8.818;2023-05-17T12:31:27;5.15;;;2.15;;
50547;SDS011;38013;48.810;8.818;2023-05-17T12:33:57;4.10;;;2.00;;
50547;SDS011;38013;48.810;8.818;2023-05-17T12:36:26;6.87;;;2.27;;
50547;SDS011;38013;48.810;8.818;2023-05-17T12:38:59;6.88;;;2.10;;
50547;SDS011;38013;48.810;8.818;2023-05-17T12:41:27;4.70;;;2.28;;
50547;SDS011;38013;48.810;8.818;2023-05-17T12:43:55;6.68;;;2.03;;
50547;SDS011;38013;48.810;8.818;2023-05-17T12:46:40;5.00;;;2.13;;
50547;SDS011;38013;48.810;8.818;2023-05-17T12:49:07;7.55;;;1.88;;
50547;SDS011;38013;48.810;8.818;2023-05-17T12:54:09;5.05;;;2.20;;
50547;SDS011;38013;48.810;8.818;2023-05-17T12:56:40;5.88;;;2.20;;
50547;SDS011;38013;48.810;8.818;2023-05-17T13:01:43;7.10;;;2.22;;
50547;SDS011;38013;48.810;8.818;2023-05-17T13:04:18;4.82;;;2.03;;
50547;SDS011;38013;48.810;8.818;2023-05-17T13:06:55;5.70;;;1.98;;
50547;SDS011;38013;48.810;8.818;2023-05-17T13:09:28;6.78;;;2.15;;
50547;SDS011;38013;48.810;8.818;2023-05-17T13:12:00;5.57;;;2.30;;
50547;SDS011;38013;48.810;8.818;2023-05-17T13:14:43;5.75;;;2.22;;
50547;SDS011;38013;48.810;8.818;2023-05-17T13:17:18;5.53;;;2.45;;
50547;SDS011;38013;48.810;8.818;2023-05-17T13:19:48;8.73;;;2.20;;
50547;SDS011;38013;48.810;8.818;2023-05-17T13:22:15;8.80;;;3.20;;
50547;SDS011;38013;48.810;8.818;2023-05-17T13:24:43;7.05;;;2.58;;
50547;SDS011;38013;48.810;8.818;2023-05-17T13:27:10;5.80;;;2.58;;
50547;SDS011;38013;48.810;8.818;2023-05-17T13:29:39;7.88;;;2.78;;
50547;SDS011;38013;48.810;8.818;2023-05-17T13:32:09;6.75;;;2.25;;
50547;SDS011;38013;48.810;8.818;2023-05-17T13:34:39;8.70;;;2.33;;
50547;SDS011;38013;48.810;8.818;2023-05-17T13:37:07;6.60;;;2.50;;
50547;SDS011;38013;48.810;8.818;2023-05-17T13:39:37;7.70;;;3.22;;
50547;SDS011;38013;48.810;8.818;2023-05-17T13:42:05;9.55;;;3.70;;
50547;SDS011;38013;48.810;8.818;2023-05-17T13:44:32;7.72;;;3.20;;
50547;SDS011;38013;48.810;8.818;2023-05-17T13:46:59;7.38;;;3.67;;
50547;SDS011;38013;48.810;8.818;2023-05-17T13:49:26;6.82;;;3.17;;
50547;SDS011;38013;48.810;8.818;2023-05-17T13:51:53;9.75;;;3.40;;
50547;SDS011;38013;48.810;8.818;2023-05-17T13:54:21;7.80;;;2.92;;
50547;SDS011;38013;48.810;8.818;2023-05-17T13:56:48;8.23;;;2.90;;
50547;SDS011;38013;48.810;8.818;2023-05-17T13:59:16;8.32;;;2.97;;
50547;SDS011;38013;48.810;8.818;2023-05-17T14:01:44;5.97;;;2.47;;
50547;SDS011;38013;48.810;8.818;2023-05-17T14:04:11;7.22;;;2.78;;
50547;SDS011;38013;48.810;8.818;2023-05-17T14:06:40;6.85;;;2.75;;
50547;SDS011;38013;48.810;8.818;2023-05-17T14:09:09;6.32;;;2.80;;
50547;SDS011;38013;48.810;8.818;2023-05-17T14:11:37;8.30;;;2.97;;
50547;SDS011;38013;48.810;8.818;2023-05-17T14:14:04;4.07;;;2.08;;
50547;SDS011;38013;48.810;8.818;2023-05-17T14:16:32;6.18;;;2.28;;
50547;SDS011;38013;48.810;8.818;2023-05-17T14:18:59;6.60;;;2.25;;
50547;SDS011;38013;48.810;8.818;2023-05-17T14:21:30;6.47;;;2.28;;
50547;SDS011;38013;48.810;8.818;2023-05-17T14:23:57;6.43;;;2.45;;
50547;SDS011;38013;48.810;8.818;2023-05-17T14:26:24;7.47;;;2.95;;
50547;SDS011;38013;48.810;8.818;2023-05-17T14:28:51;7.00;;;2.55;;
50547;SDS011;38013;48.810;8.818;2023-05-17T14:31:19;4.93;;;2.20;;
50547;SDS011;38013;48.810;8.818;2023-05-17T14:33:46;7.07;;;2.45;;
50547;SDS011;38013;48.810;8.818;2023-05-17T14:36:13;5.95;;;2.67;;
50547;SDS011;38013;48.810;8.818;2023-05-17T14:38:41;6.78;;;2.60;;
50547;SDS011;38013;48.810;8.818;2023-05-17T14:41:08;5.30;;;2.55;;
50547;SDS011;38013;48.810;8.818;2023-05-17T14:43:35;4.97;;;2.30;;
50547;SDS011;38013;48.810;8.818;2023-05-17T14:46:02;5.25;;;2.40;;
50547;SDS011;38013;48.810;8.818;2023-05-17T14:48:29;6.00;;;2.28;;
50547;SDS011;38013;48.810;8.818;2023-05-17T14:50:57;6.05;;;2.45;;
50547;SDS011;38013;48.810;8.818;2023-05-17T14:53:24;5.93;;;2.45;;
50547;SDS011;38013;48.810;8.818;2023-05-17T14:55:57;7.30;;;2.42;;
50547;SDS011;38013;48.810;8.818;2023-05-17T14:58:29;6.25;;;2.50;;
50547;SDS011;38013;48.810;8.818;2023-05-17T15:00:56;5.43;;;2.22;;
50547;SDS011;38013;48.810;8.818;2023-05-17T15:03:31;6.00;;;2.63;;
50547;SDS011;38013;48.810;8.818;2023-05-17T15:05:58;5.93;;;2.75;;
50547;SDS011;38013;48.810;8.818;2023-05-17T15:08:27;4.95;;;2.20;;
50547;SDS011;38013;48.810;8.818;2023-05-17T15:10:54;9.65;;;2.72;;
50547;SDS011;38013;48.810;8.818;2023-05-17T15:13:23;5.13;;;2.45;;
50547;SDS011;38013;48.810;8.818;2023-05-17T15:15:50;5.72;;;2.30;;
50547;SDS011;38013;48.810;8.818;2023-05-17T15:18:19;5.20;;;2.30;;
50547;SDS011;38013;48.810;8.818;2023-05-17T15:20:47;4.90;;;2.08;;
50547;SDS011;38013;48.810;8.818;2023-05-17T15:23:14;6.13;;;2.20;;
50547;SDS011;38013;48.810;8.818;2023-05-17T15:25:41;5.75;;;2.50;;
50547;SDS011;38013;48.810;8.818;2023-05-17T15:28:08;6.82;;;3.10;;
50547;SDS011;38013;48.810;8.818;2023-05-17T15:30:35;7.03;;;2.67;;
50547;SDS011;38013;48.810;8.818;2023-05-17T15:33:02;6.00;;;2.33;;
50547;SDS011;38013;48.810;8.818;2023-05-17T15:35:29;5.22;;;2.30;;